createdAt,value
2023-03-31T16:34:08.291Z,74.26
2023-03-31T16:34:17.475Z,73.85
2023-03-31T16:34:28.381Z,73.18
2023-03-31T16:34:37.651Z,72.88
2023-03-31T16:34:50.798Z,72.88
2023-03-31T16:34:57.882Z,72.47
2023-03-31T16:35:17.971Z,72.27
2023-03-31T16:35:28.067Z,71.77
2023-03-31T16:35:38.260Z,71.47
2023-03-31T16:35:48.400Z,71.37
2023-03-31T16:35:58.593Z,71.57
2023-03-31T16:36:08.617Z,71.97
2023-03-31T16:36:18.775Z,72.98
2023-03-31T16:36:28.754Z,75.10
2023-03-31T16:36:39.185Z,76.61
2023-03-31T16:36:49.282Z,77.01
2023-03-31T16:36:59.805Z,77.01
2023-03-31T16:37:09.286Z,76.81
2023-03-31T16:37:19.395Z,76.17
2023-03-31T16:37:29.713Z,74.35
2023-03-31T16:37:39.838Z,73.05
2023-03-31T16:37:49.915Z,72.94
2023-03-31T16:38:00.016Z,72.64
2023-03-31T16:38:10.975Z,72.24
2023-03-31T16:38:20.259Z,71.64
2023-03-31T16:38:30.347Z,71.23
2023-03-31T16:38:40.422Z,70.93
2023-03-31T16:38:50.548Z,70.83
2023-03-31T16:39:02.537Z,70.62
2023-03-31T16:39:20.954Z,70.83
2023-03-31T16:39:31.107Z,70.62
2023-03-31T16:39:41.220Z,70.56
2023-03-31T16:39:51.226Z,70.66
2023-03-31T16:40:01.421Z,70.97
2023-03-31T16:40:11.500Z,71.06
2023-03-31T16:40:21.693Z,71.26
2023-03-31T16:40:31.699Z,71.60
2023-03-31T16:40:41.989Z,71.80
2023-03-31T16:40:52.055Z,71.80
2023-03-31T16:41:03.065Z,71.80
2023-03-31T16:41:12.166Z,71.94
2023-03-31T16:41:22.366Z,72.04
2023-03-31T16:41:32.513Z,72.24
2023-03-31T16:41:42.534Z,72.34
2023-03-31T16:41:53.056Z,72.64
2023-03-31T16:42:12.873Z,73.28
2023-03-31T16:42:23.007Z,73.28
2023-03-31T16:42:33.032Z,73.18
2023-03-31T16:42:43.150Z,73.38
2023-03-31T16:42:53.263Z,73.49
2023-03-31T16:43:03.498Z,73.69
2023-03-31T16:43:13.541Z,73.79
2023-03-31T16:43:23.772Z,73.93
2023-03-31T16:43:33.773Z,74.13
2023-03-31T16:43:44.053Z,74.22
2023-03-31T16:43:54.122Z,74.53
2023-03-31T16:44:04.295Z,74.63
2023-03-31T16:44:14.355Z,74.73
2023-03-31T16:44:25.259Z,74.84
2023-03-31T16:44:34.632Z,75.04
2023-03-31T16:44:47.508Z,75.34
2023-03-31T16:45:12.969Z,75.37
2023-03-31T16:45:19.806Z,75.37
2023-03-31T16:45:25.828Z,75.68
2023-03-31T16:45:35.998Z,75.98
2023-03-31T16:45:46.247Z,76.39
2023-03-31T16:45:56.290Z,76.59
2023-03-31T16:46:06.294Z,76.79
2023-03-31T16:46:25.699Z,77.39
2023-03-31T16:46:36.872Z,77.70
2023-03-31T16:46:46.833Z,77.94
2023-03-31T16:46:56.929Z,77.94
2023-03-31T16:47:07.050Z,78.14
2023-03-31T16:47:27.647Z,78.44
2023-03-31T16:47:40.990Z,78.75
2023-03-31T16:47:48.781Z,79.15
2023-03-31T16:48:02.211Z,79.15
2023-03-31T16:48:17.061Z,79.05
2023-03-31T16:48:23.779Z,79.05
2023-03-31T16:48:34.273Z,78.95
2023-03-31T16:48:43.886Z,78.75
2023-03-31T16:48:54.216Z,78.55
2023-03-31T16:49:04.282Z,78.64
2023-03-31T16:49:24.428Z,78.85
2023-03-31T16:49:34.728Z,78.85
2023-03-31T16:49:44.763Z,78.95
2023-03-31T16:49:55.052Z,78.95
2023-03-31T16:50:04.905Z,78.95
2023-03-31T16:50:15.118Z,78.95
2023-03-31T16:50:25.123Z,79.05
2023-03-31T16:50:35.279Z,79.15
2023-03-31T16:50:45.286Z,79.25
2023-03-31T16:50:55.514Z,79.35
2023-03-31T16:51:06.387Z,79.35
2023-03-31T16:51:15.731Z,79.46
2023-03-31T16:51:25.979Z,79.46
2023-03-31T16:51:35.993Z,79.55
2023-03-31T16:51:46.216Z,79.75
2023-03-31T16:51:56.205Z,79.55
2023-03-31T16:52:16.497Z,79.55
2023-03-31T16:52:26.712Z,79.41
2023-03-31T16:52:36.777Z,79.32
2023-03-31T16:52:46.944Z,79.41
2023-03-31T16:52:57.173Z,79.52
2023-03-31T16:53:07.062Z,79.41
2023-03-31T16:53:17.323Z,79.62
2023-03-31T16:53:27.548Z,79.62
2023-03-31T16:53:37.740Z,79.52
2023-03-31T16:53:47.749Z,79.52
2023-03-31T16:53:59.268Z,79.32
2023-03-31T16:54:07.948Z,79.11
2023-03-31T16:54:17.954Z,78.77
2023-03-31T16:54:28.094Z,78.37
2023-03-31T16:54:38.315Z,78.47
2023-03-31T16:54:48.446Z,78.47
2023-03-31T16:54:58.498Z,78.23
2023-03-31T16:55:08.553Z,78.13
2023-03-31T16:55:18.822Z,78.03
2023-03-31T16:55:28.974Z,78.03
2023-03-31T16:55:39.083Z,77.93
2023-03-31T16:55:49.296Z,77.62
2023-03-31T16:55:59.285Z,77.22
2023-03-31T16:56:09.555Z,76.92
2023-03-31T16:56:20.191Z,76.82
2023-03-31T16:56:29.606Z,76.92
2023-03-31T16:56:39.688Z,77.02
2023-03-31T16:56:49.821Z,77.12
2023-03-31T16:57:00.134Z,77.02
2023-03-31T16:57:11.048Z,77.08
2023-03-31T16:57:20.353Z,77.08
2023-03-31T16:57:30.511Z,76.98
2023-03-31T16:57:40.475Z,76.98
2023-03-31T16:57:50.722Z,76.98
2023-03-31T16:58:00.818Z,77.02
2023-03-31T16:58:20.893Z,76.88
2023-03-31T16:58:31.102Z,76.88
2023-03-31T16:58:41.108Z,76.72
2023-03-31T16:58:51.350Z,76.42
2023-03-31T16:59:01.608Z,76.31
2023-03-31T16:59:11.564Z,76.18
2023-03-31T16:59:21.881Z,76.21
2023-03-31T16:59:31.914Z,76.31
2023-03-31T16:59:41.997Z,76.38
2023-03-31T16:59:52.140Z,76.28
2023-03-31T17:00:02.441Z,76.07
2023-03-31T17:00:13.281Z,76.07
2023-03-31T17:00:22.927Z,76.18
2023-03-31T17:00:32.719Z,76.31
2023-03-31T17:00:42.723Z,76.42
2023-03-31T17:00:52.865Z,76.62
2023-03-31T17:01:03.525Z,76.82
2023-03-31T17:01:23.215Z,76.92
2023-03-31T17:01:33.568Z,76.92
2023-03-31T17:01:43.520Z,76.92
2023-03-31T17:01:53.521Z,76.92
2023-03-31T17:02:03.653Z,77.02
2023-03-31T17:02:13.965Z,77.02
2023-03-31T17:02:24.209Z,77.02
2023-03-31T17:02:34.163Z,77.02
2023-03-31T17:02:45.186Z,77.02
2023-03-31T17:02:54.665Z,77.15
2023-03-31T17:03:04.651Z,77.26
2023-03-31T17:03:14.756Z,77.26
2023-03-31T17:03:24.916Z,77.06
2023-03-31T17:03:34.908Z,76.95
2023-03-31T17:03:55.079Z,76.95
2023-03-31T17:04:05.097Z,77.15
2023-03-31T17:04:15.179Z,77.15
2023-03-31T17:04:25.347Z,77.26
2023-03-31T17:04:35.570Z,77.36
2023-03-31T17:04:45.699Z,77.46
2023-03-31T17:04:59.675Z,77.46
2023-03-31T17:05:13.795Z,77.76
2023-03-31T17:05:20.159Z,78.00
2023-03-31T17:05:30.511Z,77.90
2023-03-31T17:05:40.528Z,77.90
2023-03-31T17:05:50.639Z,77.90
2023-03-31T17:06:00.684Z,77.80
2023-03-31T17:06:21.122Z,77.90
2023-03-31T17:06:31.206Z,78.04
2023-03-31T17:06:42.465Z,78.14
2023-03-31T17:06:51.449Z,78.24
2023-03-31T17:07:01.604Z,78.44
2023-03-31T17:07:11.756Z,78.55
2023-03-31T17:07:21.838Z,78.85
2023-03-31T17:07:31.998Z,78.99
2023-03-31T17:07:53.105Z,79.29
2023-03-31T17:08:02.439Z,79.49
2023-03-31T17:08:12.451Z,79.59
2023-03-31T17:08:22.449Z,79.79
2023-03-31T17:08:32.461Z,79.90
2023-03-31T17:08:42.652Z,80.20
2023-03-31T17:09:02.880Z,80.40
2023-03-31T17:09:13.029Z,80.30
2023-03-31T17:09:23.198Z,80.10
2023-03-31T17:09:33.221Z,80.10
2023-03-31T17:09:43.652Z,80.20
2023-03-31T17:09:53.667Z,80.10
2023-03-31T17:10:03.659Z,80.00
2023-03-31T17:10:13.787Z,79.90
2023-03-31T17:10:24.124Z,79.90
2023-03-31T17:10:34.431Z,79.90
2023-03-31T17:10:44.272Z,79.90
2023-03-31T17:10:54.354Z,80.00
2023-03-31T17:11:04.460Z,80.10
2023-03-31T17:11:14.862Z,80.13
2023-03-31T17:11:24.644Z,80.13
2023-03-31T17:11:35.086Z,80.13
2023-03-31T17:11:44.968Z,80.13
2023-03-31T17:11:55.122Z,80.13
2023-03-31T17:12:05.276Z,80.24
2023-03-31T17:12:15.424Z,80.13
2023-03-31T17:12:25.486Z,80.13
2023-03-31T17:12:35.708Z,80.24
2023-03-31T17:12:45.818Z,80.24
2023-03-31T17:12:55.905Z,80.24
2023-03-31T17:13:05.993Z,80.24
2023-03-31T17:13:16.052Z,80.24
2023-03-31T17:13:26.205Z,80.34
2023-03-31T17:13:37.122Z,80.44
2023-03-31T17:13:46.857Z,80.54
2023-03-31T17:13:56.668Z,80.64
2023-03-31T17:14:07.096Z,80.64
2023-03-31T17:14:17.117Z,80.74
2023-03-31T17:14:27.087Z,80.74
2023-03-31T17:14:38.004Z,80.84
2023-03-31T17:14:47.459Z,80.84
2023-03-31T17:14:57.434Z,80.84
2023-03-31T17:15:07.741Z,80.84
2023-03-31T17:15:18.499Z,81.05
2023-03-31T17:15:27.839Z,80.94
2023-03-31T17:15:38.198Z,80.94
2023-03-31T17:15:48.111Z,80.74
2023-03-31T17:16:13.382Z,80.54
2023-03-31T17:16:29.723Z,80.44
2023-03-31T17:16:48.029Z,80.24
2023-03-31T17:16:54.323Z,80.24
2023-03-31T17:17:02.907Z,80.24
2023-03-31T17:17:13.486Z,80.20
2023-03-31T17:17:23.297Z,80.20
2023-03-31T17:17:33.587Z,80.30
2023-03-31T17:17:43.448Z,80.20
2023-03-31T17:18:04.007Z,80.13
2023-03-31T17:18:13.865Z,80.30
2023-03-31T17:18:23.994Z,80.30
2023-03-31T17:18:34.335Z,80.20
2023-03-31T17:18:44.338Z,80.20
2023-03-31T17:18:54.302Z,80.30
2023-03-31T17:19:04.453Z,80.40
2023-03-31T17:19:14.598Z,80.40
2023-03-31T17:19:24.643Z,80.30
2023-03-31T17:19:34.797Z,80.20
2023-03-31T17:19:45.028Z,80.10
2023-03-31T17:19:55.133Z,79.79
2023-03-31T17:20:05.300Z,79.49
2023-03-31T17:20:15.445Z,79.49
2023-03-31T17:20:25.457Z,79.79
2023-03-31T17:20:36.083Z,80.00
2023-03-31T17:20:45.678Z,79.90
2023-03-31T17:20:55.906Z,79.79
2023-03-31T17:21:05.897Z,79.59
2023-03-31T17:21:16.135Z,79.49
2023-03-31T17:21:26.116Z,79.29
2023-03-31T17:21:36.326Z,79.13
2023-03-31T17:21:46.671Z,78.82
2023-03-31T17:21:56.704Z,78.82
2023-03-31T17:22:07.533Z,78.82
2023-03-31T17:22:16.799Z,78.92
2023-03-31T17:22:26.966Z,78.92
2023-03-31T17:22:37.092Z,78.82
2023-03-31T17:22:47.182Z,78.82
2023-03-31T17:22:57.447Z,78.72
2023-03-31T17:23:07.515Z,78.82
2023-03-31T17:23:18.264Z,78.82
2023-03-31T17:23:27.862Z,78.62
2023-03-31T17:23:38.039Z,78.21
2023-03-31T17:23:48.361Z,77.77
2023-03-31T17:23:59.272Z,77.57
2023-03-31T17:24:08.350Z,77.57
2023-03-31T17:24:18.783Z,77.57
2023-03-31T17:24:28.585Z,77.67
2023-03-31T17:24:38.563Z,77.77
2023-03-31T17:24:48.737Z,78.08
2023-03-31T17:25:00.942Z,77.87
2023-03-31T17:25:09.138Z,77.67
2023-03-31T17:25:19.128Z,76.97
2023-03-31T17:25:29.289Z,76.66
2023-03-31T17:25:39.353Z,76.15
2023-03-31T17:25:49.520Z,75.85
2023-03-31T17:26:10.294Z,75.85
2023-03-31T17:26:20.055Z,75.95
2023-03-31T17:26:30.004Z,76.05
2023-03-31T17:26:40.185Z,75.95
2023-03-31T17:26:50.281Z,75.95
2023-03-31T17:27:00.378Z,75.85
2023-03-31T17:27:10.667Z,75.75
2023-03-31T17:27:20.591Z,75.75
2023-03-31T17:27:30.747Z,75.75
2023-03-31T17:27:40.853Z,75.75
2023-03-31T17:27:50.828Z,75.75
2023-03-31T17:28:01.233Z,75.85
